Time;durP1;ratioP1;P1;durP2;ratioP2;P2;SDS_P1;SDS_P2;PMS_P1;PMS_P2;Temp;Humidity;BMP_temperature;BMP_pressure;BME280_temperature;BME280_humidity;BME280_pressure;Samples;Min_cycle;Max_cycle;Signal;HPM_P1;HPM_P2
2021/07/26 00:01:15;;;;;;;10.53;5.83;;;;;;;17.29;100.00;22106.56;5059606;28;20390;-72
2021/07/26 00:03:41;;;;;;;10.60;5.57;;;;;;;17.34;100.00;18473.22;5061336;28;20552;-72
2021/07/26 00:06:06;;;;;;;11.87;5.70;;;;;;;17.36;100.00;18804.28;5059604;28;20040;-72
2021/07/26 00:08:32;;;;;;;11.80;6.00;;;;;;;17.33;100.00;17152.13;5059760;28;20284;-72
2021/07/26 00:11:03;;;;;;;15.50;6.23;;;;;;;17.31;100.00;17151.28;5059631;28;20024;-72
2021/07/26 00:13:28;;;;;;;11.87;5.83;;;;;;;17.26;100.00;13520.38;5072507;28;20078;-72
2021/07/26 00:15:54;;;;;;;11.67;5.87;;;;;;;17.20;100.00;13518.69;5075668;28;20346;-72
2021/07/26 00:18:20;;;;;;;12.60;6.23;;;;;;;17.16;100.00;13847.28;5090744;28;20035;-72
2021/07/26 00:20:46;;;;;;;10.40;5.47;;;;;;;17.14;100.00;22761.38;5076303;28;20038;-72
2021/07/26 00:23:11;;;;;;;13.43;5.57;;;;;;;17.05;100.00;26395.94;5089663;28;20095;-72
2021/07/26 00:25:37;;;;;;;11.57;5.63;;;;;;;16.94;100.00;17469.13;5078420;28;20520;-72
2021/07/26 00:28:02;;;;;;;11.63;5.10;;;;;;;16.89;100.00;20768.63;5083669;28;20120;-72
2021/07/26 00:30:28;;;;;;;10.70;4.97;;;;;;;16.87;100.00;22419.41;5083012;28;20032;-72
2021/07/26 00:32:53;;;;;;;10.50;5.47;;;;;;;16.82;100.00;28039.28;5086242;28;20408;-72
2021/07/26 00:35:19;;;;;;;13.57;5.77;;;;;;;16.79;100.00;31348.94;5079713;28;20050;-72
2021/07/26 00:37:44;;;;;;;11.73;5.80;;;;;;;16.70;100.00;33994.69;5085665;28;20043;-72
2021/07/26 00:40:10;;;;;;;12.50;5.90;;;;;;;16.73;100.00;38309.03;5079582;28;20370;-72
2021/07/26 00:42:36;;;;;;;11.30;5.53;;;;;;;16.67;100.00;37972.97;5084090;28;20039;-72
2021/07/26 00:45:04;;;;;;;12.03;5.27;;;;;;;16.52;100.00;30009.38;5072054;28;20456;-72
2021/07/26 00:47:29;;;;;;;14.60;5.90;;;;;;;16.52;100.00;27031.38;5078840;28;20118;-72
2021/07/26 00:49:55;;;;;;;12.00;4.90;;;;;;;16.45;100.00;23392.41;5078344;28;20481;-72
2021/07/26 00:52:21;;;;;;;11.87;6.23;;;;;;;16.42;100.00;22070.38;5081695;28;20186;-72
2021/07/26 00:54:47;;;;;;;13.57;5.40;;;;;;;16.42;100.00;25373.91;5078885;28;20107;-72
2021/07/26 00:57:12;;;;;;;16.87;5.80;;;;;;;16.46;100.00;29343.88;5077731;28;20038;-72
2021/07/26 00:59:39;;;;;;;13.40;6.30;;;;;;;16.49;100.00;32987.66;5077056;28;20586;-72
2021/07/26 01:02:04;;;;;;;11.33;5.57;;;;;;;16.49;100.00;32987.66;5074946;28;20488;-74
2021/07/26 01:04:30;;;;;;;12.53;5.87;;;;;;;16.42;100.00;33977.94;5090774;28;20028;-74
2021/07/26 01:06:56;;;;;;;13.23;5.37;;;;;;;16.33;100.00;29667.94;5080561;28;20269;-74
2021/07/26 01:09:22;;;;;;;9.43;4.70;;;;;;;16.13;100.00;19749.06;5081486;28;20039;-74
2021/07/26 01:11:48;;;;;;;12.10;5.27;;;;;;;16.01;100.00;17766.72;5074512;28;20478;-74
2021/07/26 01:14:17;;;;;;;15.63;5.73;;;;;;;16.00;100.00;23702.94;5084385;28;20086;-74
2021/07/26 01:16:47;;;;;;;15.90;6.37;;;;;;;16.02;100.00;30974.31;5060814;28;20501;-74
2021/07/26 01:19:15;;;;;;;19.90;7.17;;;;;;;16.15;100.00;35949.00;5059937;28;20366;-74
2021/07/26 01:21:40;;;;;;;18.50;8.80;;;;;;;16.28;100.00;43589.97;5059869;28;20039;-74
2021/07/26 01:24:06;;;;;;;21.10;9.17;;;;;;;16.39;100.00;47921.03;5062350;28;20029;-74
2021/07/26 01:26:33;;;;;;;24.53;10.57;;;;;;;16.46;100.00;48924.94;5060452;28;20089;-74
2021/07/26 01:29:06;;;;;;;18.13;7.83;;;;;;;16.38;100.00;45259.56;5063804;28;20032;-74
2021/07/26 01:31:32;;;;;;;17.47;7.53;;;;;;;16.36;100.00;41935.28;5063760;28;20055;-74
2021/07/26 01:33:58;;;;;;;16.73;7.20;;;;;;;16.34;100.00;38614.47;5069641;28;20024;-74
2021/07/26 01:36:24;;;;;;;16.17;7.77;;;;;;;16.35;100.00;39942.16;5063953;28;20028;-74
2021/07/26 01:38:52;;;;;;;20.73;8.57;;;;;;;16.36;100.00;47918.06;5067977;28;20075;-74
2021/07/26 01:41:21;;;;;;;21.87;9.10;;;;;;;16.33;100.00;46918.03;5063368;28;20622;-74
2021/07/26 01:44:03;;;;;;;23.90;8.83;;;;;;;16.46;100.00;49923.19;5061318;28;20029;-74
2021/07/26 01:46:55;;;;;;;23.43;9.77;;;;;;;16.45;100.00;47592.56;5049772;28;20286;-74
2021/07/26 01:49:48;;;;;;;21.87;9.73;;;;;;;16.50;100.00;47929.53;5058177;28;20028;-74
2021/07/26 01:52:15;;;;;;;24.63;10.17;;;;;;;16.53;100.00;49596.44;5058434;28;20024;-74
2021/07/26 01:54:40;;;;;;;22.40;9.73;;;;;;;16.56;100.00;49266.09;5063379;28;20024;-74
2021/07/26 01:57:07;;;;;;;21.80;9.70;;;;;;;16.56;100.00;46936.41;5064882;28;20047;-74
2021/07/26 01:59:32;;;;;;;20.63;9.40;;;;;;;16.47;100.00;44933.56;5063522;28;20254;-75
2021/07/26 02:01:58;;;;;;;20.37;9.37;;;;;;;16.44;100.00;43269.75;5063498;28;20020;-75
2021/07/26 02:04:23;;;;;;;22.20;9.47;;;;;;;16.44;100.00;46261.16;5063818;28;20035;-75
2021/07/26 02:06:49;;;;;;;19.97;8.87;;;;;;;16.45;100.00;48590.81;5063676;28;20028;-75
2021/07/26 02:09:14;;;;;;;19.20;7.63;;;;;;;16.36;100.00;42267.03;5063815;28;20047;-75
2021/07/26 02:11:40;;;;;;;17.07;7.63;;;;;;;16.27;100.00;35293.97;5062471;28;20420;-74
2021/07/26 02:14:09;;;;;;;17.10;8.50;;;;;;;16.24;100.00;36286.34;5068863;28;20044;-74
2021/07/26 02:16:39;;;;;;;17.47;7.23;;;;;;;16.21;100.00;37278.91;5082944;28;20335;-74
2021/07/26 02:19:05;;;;;;;20.37;8.53;;;;;;;16.29;100.00;44919.53;5070968;28;20023;-74
2021/07/26 02:21:31;;;;;;;15.30;7.60;;;;;;;16.29;100.00;46582.16;5065845;28;20112;-74
2021/07/26 02:23:57;;;;;;;20.60;8.50;;;;;;;16.28;100.00;47579.03;5066480;28;20108;-74
2021/07/26 02:26:22;;;;;;;21.43;8.33;;;;;;;16.23;100.00;45912.25;5062656;28;20052;-74
2021/07/26 02:28:48;;;;;;;18.30;8.60;;;;;;;16.24;100.00;48905.84;5067345;28;20035;-74
2021/07/26 02:31:13;;;;;;;14.93;7.70;;;;;;;16.20;100.00;47904.84;5078610;28;20465;-71
2021/07/26 02:33:39;;;;;;;19.13;8.97;;;;;;;16.20;100.00;49901.06;5068734;28;20261;-71
2021/07/26 02:36:04;;;;;;;21.53;8.73;;;;;;;16.24;100.00;48573.59;5063612;28;20098;-74
2021/07/26 02:38:30;;;;;;;19.83;8.80;;;;;;;16.27;100.00;53903.72;5066129;28;20040;-74
2021/07/26 02:40:55;;;;;;;23.33;9.17;;;;;;;16.31;100.00;50243.69;5081335;28;20028;-74
2021/07/26 02:43:21;;;;;;;19.27;8.67;;;;;;;16.33;100.00;49912.56;5062838;28;20031;-74
2021/07/26 02:45:47;;;;;;;17.87;8.30;;;;;;;16.38;100.00;53247.66;5069819;28;20107;-74
2021/07/26 02:48:13;;;;;;;21.53;10.13;;;;;;;16.41;100.00;49586.75;5061340;28;20039;-74
2021/07/26 02:50:38;;;;;;;21.97;8.87;;;;;;;16.40;100.00;47256.50;5070201;28;20149;-74
2021/07/26 02:53:04;;;;;;;18.73;8.93;;;;;;;16.40;100.00;44263.59;5063806;28;20078;-74
2021/07/26 02:55:29;;;;;;;18.83;8.80;;;;;;;16.30;100.00;42262.84;5072828;28;20143;-74
2021/07/26 02:57:58;;;;;;;14.70;7.40;;;;;;;16.28;100.00;41928.88;5073832;28;20294;-74
2021/07/26 03:00:23;;;;;;;20.67;8.27;;;;;;;16.26;100.00;43588.03;5069288;28;20055;-74
2021/07/26 03:02:49;;;;;;;17.83;8.73;;;;;;;16.26;100.00;41263.34;5071243;28;20036;-74
2021/07/26 03:05:14;;;;;;;18.90;8.33;;;;;;;16.28;100.00;43257.75;5061439;28;20541;-75
2021/07/26 03:07:40;;;;;;;18.63;8.37;;;;;;;16.27;100.00;46247.59;5064798;28;20255;-75
2021/07/26 03:10:06;;;;;;;19.93;8.97;;;;;;;16.27;100.00;45915.53;5065344;28;20031;-75
2021/07/26 03:12:32;;;;;;;18.80;9.30;;;;;;;16.27;100.00;46913.03;5065627;28;20435;-75
2021/07/26 03:14:57;;;;;;;19.63;9.10;;;;;;;16.28;100.00;44586.41;5069446;28;20097;-75
2021/07/26 03:17:25;;;;;;;18.90;8.77;;;;;;;16.23;100.00;43253.88;5074493;28;20069;-74
2021/07/26 03:19:54;;;;;;;17.97;8.37;;;;;;;16.15;100.00;37274.88;5079569;28;20035;-74
2021/07/26 03:23:09;;;;;;;15.60;8.10;;;;;;;16.09;100.00;36939.31;5080962;28;20609;-74
2021/07/26 03:25:39;;;;;;;17.83;8.03;;;;;;;16.03;100.00;35609.84;5063333;28;20484;-74
2021/07/26 03:28:04;;;;;;;19.43;8.40;;;;;;;15.98;100.00;31964.91;5076368;28;20023;-74
2021/07/26 03:30:30;;;;;;;19.43;7.40;;;;;;;15.87;100.00;29312.38;5075920;28;20024;-74
2021/07/26 03:32:55;;;;;;;22.13;8.07;;;;;;;15.75;100.00;28314.97;5080659;28;20039;-74
2021/07/26 03:35:22;;;;;;;18.83;7.43;;;;;;;15.78;100.00;32284.00;5082010;28;20031;-74
2021/07/26 03:37:48;;;;;;;15.43;7.73;;;;;;;15.73;100.00;28974.56;5086171;28;20030;-74
2021/07/26 03:40:14;;;;;;;23.97;8.17;;;;;;;15.74;100.00;34267.09;5081262;28;20027;-74
2021/07/26 03:42:44;;;;;;;20.67;8.83;;;;;;;15.70;100.00;33272.09;5085438;28;20027;-74
2021/07/26 03:45:12;;;;;;;24.17;9.17;;;;;;;15.69;100.00;33271.47;5078244;28;20024;-74
2021/07/26 03:47:38;;;;;;;16.77;7.43;;;;;;;15.61;100.00;30951.50;5085507;28;20047;-74
2021/07/26 03:50:05;;;;;;;18.67;8.33;;;;;;;15.64;100.00;36247.53;5080666;28;20032;-74
2021/07/26 03:52:53;;;;;;;19.30;8.37;;;;;;;15.72;100.00;41555.81;5075162;28;20388;-74
2021/07/26 03:55:27;;;;;;;21.07;8.53;;;;;;;15.86;100.00;43557.22;5079402;28;20055;-74
2021/07/26 03:57:53;;;;;;;18.30;8.47;;;;;;;15.93;100.00;42899.09;5083147;28;20044;-74
2021/07/26 04:00:23;;;;;;;26.97;9.30;;;;;;;15.98;100.00;41574.81;5073617;28;20016;-74
2021/07/26 04:02:57;;;;;;;19.67;9.00;;;;;;;16.18;100.00;42585.81;5083479;28;20096;-74
2021/07/26 04:05:26;;;;;;;22.30;9.17;;;;;;;16.18;100.00;40593.63;5074051;28;20028;-74
2021/07/26 04:07:52;;;;;;;19.90;8.73;;;;;;;16.20;100.00;37278.22;5082198;28;20623;-74
2021/07/26 04:10:18;;;;;;;21.20;8.67;;;;;;;16.27;100.00;35293.66;5079697;28;20123;-74
2021/07/26 04:12:48;;;;;;;19.10;9.57;;;;;;;16.39;100.00;30333.41;5081470;28;20597;-74
2021/07/26 04:15:13;;;;;;;18.10;9.13;;;;;;;16.54;100.00;33984.75;5078821;28;20059;-74
2021/07/26 04:17:39;;;;;;;19.80;8.60;;;;;;;16.65;100.00;30678.50;5074642;28;20020;-75
2021/07/26 04:20:05;;;;;;;17.77;8.67;;;;;;;16.66;100.00;20099.13;5073882;28;20381;-75
2021/07/26 04:22:31;;;;;;;16.73;8.27;;;;;;;16.74;100.00;17132.31;5073268;28;20123;-75
2021/07/26 04:24:56;;;;;;;23.57;8.40;;;;;;;16.85;100.00;15486.97;5078309;28;20430;-75
2021/07/26 04:27:24;;;;;;;20.57;7.90;;;;;;;16.89;100.00;4952.63;5081712;28;20035;-75
2021/07/26 04:29:50;;;;;;;16.57;7.30;;;;;;;17.03;100.00;1668.25;5069249;28;20099;-75
2021/07/26 04:32:15;;;;;;;16.87;7.37;;;;;;;17.11;100.00;-9480.94;5079513;28;20443;-75
2021/07/26 04:34:41;;;;;;;17.30;7.60;;;;;;;17.15;100.00;-11445.19;5074543;28;20032;-74
2021/07/26 04:37:06;;;;;;;18.63;8.07;;;;;;;17.19;100.00;-13796.69;5076438;28;20484;-74
2021/07/26 04:39:32;;;;;;;16.00;7.77;;;;;;;17.22;100.00;-19428.03;5078275;28;20020;-74
2021/07/26 04:41:57;;;;;;;13.67;7.63;;;;;;;17.29;100.00;-18582.94;5079302;28;20550;-75
2021/07/26 04:44:23;;;;;;;17.30;7.03;;;;;;;17.36;100.00;-17676.03;5085455;28;20043;-75
2021/07/26 04:46:48;;;;;;;15.13;7.27;;;;;;;17.42;100.00;-15141.81;5071518;28;20032;-75
2021/07/26 04:49:14;;;;;;;12.50;6.60;;;;;;;17.45;100.00;-19571.72;5068110;28;20067;-74
2021/07/26 04:51:39;;;;;;;12.90;6.47;;;;;;;17.51;100.00;-19621.13;5075986;28;20030;-75
2021/07/26 04:54:05;;;;;;;14.97;6.40;;;;;;;17.52;100.00;-19621.25;5082320;28;20243;-75
2021/07/26 04:56:30;;;;;;;13.10;6.00;;;;;;;17.55;100.00;-19622.16;5079883;28;20234;-75
2021/07/26 04:58:55;;;;;;;12.30;6.70;;;;;;;17.52;100.00;-19621.38;5078008;28;20036;-75
2021/07/26 05:01:21;;;;;;;11.97;6.17;;;;;;;17.50;100.00;-19620.88;5080263;28;20031;-75
2021/07/26 05:03:46;;;;;;;15.70;6.13;;;;;;;17.54;100.00;-19621.91;5083250;28;20476;-75
2021/07/26 05:06:12;;;;;;;12.50;6.30;;;;;;;17.58;100.00;-19622.94;5083946;28;20028;-75
2021/07/26 05:08:37;;;;;;;11.20;5.57;;;;;;;17.67;100.00;-19625.03;5084429;28;20035;-75
2021/07/26 05:11:03;;;;;;;11.93;5.87;;;;;;;17.73;100.00;-19626.59;5083989;28;20074;-75
2021/07/26 05:13:28;;;;;;;9.67;5.33;;;;;;;17.83;100.00;-19629.22;5097372;28;20019;-75
2021/07/26 05:15:54;;;;;;;20.47;6.17;;;;;;;17.90;100.00;-19630.91;5084617;28;20052;-75
2021/07/26 05:18:19;;;;;;;14.00;5.70;;;;;;;18.00;100.00;-19633.53;5095587;28;20535;-74
2021/07/26 05:20:45;;;;;;;10.13;4.73;;;;;;;18.06;100.00;-19635.22;5085347;28;20027;-74
2021/07/26 05:23:11;;;;;;;9.60;5.00;;;;;;;18.15;100.00;-19637.56;5087048;28;20336;-74
2021/07/26 05:25:41;;;;;;;10.37;4.73;;;;;;;18.19;100.00;-19638.34;5084331;28;20028;-74
2021/07/26 05:28:07;;;;;;;9.17;5.07;;;;;;;18.35;100.00;-19642.66;5093934;28;20100;-74
2021/07/26 05:30:32;;;;;;;9.80;4.27;;;;;;;18.38;100.00;-19643.28;5084694;28;20258;-74
2021/07/26 05:32:58;;;;;;;10.27;4.30;;;;;;;18.46;100.00;-19645.38;5092345;28;20050;-75
2021/07/26 05:35:23;;;;;;;10.40;5.03;;;;;;;18.59;100.00;-19648.78;5085853;28;20031;-75
2021/07/26 05:37:49;;;;;;;9.43;4.60;;;;;;;18.54;100.00;-19647.47;5090249;28;20101;-75
2021/07/26 05:40:14;;;;;;;11.70;4.20;;;;;;;18.58;100.00;-19648.38;5085816;28;20027;-75
2021/07/26 05:42:40;;;;;;;11.93;4.90;;;;;;;18.77;100.00;-19653.19;5089462;28;20028;-74
2021/07/26 05:45:07;;;;;;;10.50;4.67;;;;;;;19.00;100.00;-19659.19;5086944;28;20507;-74
2021/07/26 05:47:33;;;;;;;8.20;4.13;;;;;;;19.16;100.00;-19663.22;5088470;28;20405;-75
2021/07/26 05:49:58;;;;;;;9.10;4.30;;;;;;;19.27;100.00;-19666.22;5088437;28;20107;-75
2021/07/26 05:52:24;;;;;;;13.10;4.73;;;;;;;19.33;100.00;-19667.78;5087416;28;20157;-75
2021/07/26 05:54:49;;;;;;;10.00;4.25;;;;;;;19.46;100.00;-19670.91;5088392;28;20515;-75
2021/07/26 05:57:15;;;;;;;13.05;4.30;;;;;;;19.59;100.00;-19674.28;5085677;28;20114;-75
2021/07/26 05:59:43;;;;;;;10.25;4.45;;;;;;;19.66;100.00;-19676.13;5089543;28;20256;-75
2021/07/26 06:02:09;;;;;;;11.73;3.95;;;;;;;19.75;100.00;-19678.47;5084509;28;20168;-74
2021/07/26 06:04:34;;;;;;;11.57;4.18;;;;;;;19.95;100.00;-19683.53;5088989;28;20159;-75
2021/07/26 06:07:00;;;;;;;6.80;3.55;;;;;;;20.07;100.00;-19686.53;5083308;28;20523;-75
2021/07/26 06:09:26;;;;;;;7.43;3.70;;;;;;;20.24;100.00;-19690.81;5089854;28;20527;-75
2021/07/26 06:11:53;;;;;;;8.20;3.65;;;;;;;20.44;100.00;-19696.16;5082554;28;20031;-75
2021/07/26 06:14:20;;;;;;;10.40;4.00;;;;;;;20.71;100.00;-19703.03;5088856;28;20040;-75
2021/07/26 06:16:47;;;;;;;9.13;3.90;;;;;;;20.90;100.00;-19707.84;5082262;28;20099;-75
2021/07/26 06:19:22;;;;;;;6.75;3.22;;;;;;;20.97;100.00;-19709.66;5088325;28;20070;-75
2021/07/26 06:21:49;;;;;;;8.18;3.97;;;;;;;21.01;100.00;-19710.69;5082002;28;20035;-75
2021/07/26 06:24:17;;;;;;;9.35;3.35;;;;;;;20.88;100.00;-19707.31;5086731;28;20032;-74
2021/07/26 06:26:43;;;;;;;11.27;3.38;;;;;;;20.96;100.00;-19709.41;5082404;28;20035;-74
2021/07/26 06:29:08;;;;;;;6.80;3.33;;;;;;;21.07;100.00;-19712.25;5085777;28;20032;-75
2021/07/26 06:31:34;;;;;;;8.65;3.40;;;;;;;21.27;100.00;-19717.19;5081998;28;20555;-75
2021/07/26 06:34:04;;;;;;;7.55;3.33;;;;;;;21.30;100.00;-19717.97;5083735;28;20099;-74
2021/07/26 06:36:30;;;;;;;6.00;3.53;;;;;;;21.52;100.00;-19723.69;5082254;28;20024;-74
2021/07/26 06:38:56;;;;;;;6.10;3.20;;;;;;;21.37;100.00;-19719.78;5083564;28;20272;-74
2021/07/26 06:41:22;;;;;;;6.55;3.17;;;;;;;21.65;100.00;-19726.94;5081743;28;20023;-74
2021/07/26 06:43:50;;;;;;;7.38;3.42;;;;;;;21.98;100.00;-19735.34;5083912;28;20083;-74
2021/07/26 06:46:16;;;;;;;8.93;3.63;;;;;;;21.72;100.00;-19728.63;5081893;28;20096;-74
2021/07/26 06:48:41;;;;;;;7.70;3.20;;;;;;;21.88;100.00;-19732.75;5092895;28;20031;-74
2021/07/26 06:51:07;;;;;;;7.93;4.15;;;;;;;22.99;100.00;-19761.16;5083272;28;20032;-74
2021/07/26 06:53:33;;;;;;;7.38;2.78;;;;;;;23.86;100.00;-19783.28;5094451;28;20028;-74
2021/07/26 06:56:09;;;;;;;5.45;2.95;;;;;;;25.10;100.00;-19814.84;5085258;28;20024;-74
2021/07/26 06:58:35;;;;;;;7.15;3.10;;;;;;;24.84;100.00;-19808.25;5090162;28;20116;-75
2021/07/26 07:01:11;;;;;;;5.60;2.83;;;;;;;23.66;100.00;-19778.13;5067417;28;20325;-74
2021/07/26 07:03:42;;;;;;;7.15;3.20;;;;;;;23.93;100.00;-19785.09;5084135;28;20461;-74
2021/07/26 07:06:15;;;;;;;6.43;3.10;;;;;;;25.54;100.00;-19825.94;5083699;28;20362;-74
2021/07/26 07:08:41;;;;;;;6.10;2.88;;;;;;;26.10;100.00;-19840.13;5091928;28;20503;-74
2021/07/26 07:11:09;;;;;;;7.78;3.33;;;;;;;26.50;100.00;-19850.19;5084916;28;20162;-74
2021/07/26 07:13:36;;;;;;;8.15;3.13;;;;;;;27.44;100.00;-19874.16;5090714;28;20036;-74
2021/07/26 07:16:06;;;;;;;6.15;2.95;;;;;;;28.29;89.73;-19895.63;5082431;28;20108;-74
2021/07/26 07:18:32;;;;;;;7.00;2.53;;;;;;;27.97;84.64;-19887.53;5087550;28;20024;-74
2021/07/26 07:21:01;;;;;;;7.65;2.65;;;;;;;27.30;97.56;-19870.53;5081765;28;20487;-74
2021/07/26 07:23:26;;;;;;;6.13;2.65;;;;;;;26.42;100.00;-19848.13;5086008;28;20032;-74
2021/07/26 07:25:52;;;;;;;4.85;2.60;;;;;;;26.63;95.38;-19853.41;5082185;28;20035;-74
2021/07/26 07:28:17;;;;;;;8.35;2.53;;;;;;;26.46;96.20;-19849.16;5084380;28;20039;-74
2021/07/26 07:30:43;;;;;;;4.68;2.30;;;;;;;26.67;94.97;-19854.44;5081802;28;20110;-75
2021/07/26 07:33:09;;;;;;;5.70;3.05;;;;;;;26.07;94.93;-19839.34;5088248;28;20020;-74
2021/07/26 07:35:34;;;;;;;5.50;2.60;;;;;;;26.33;91.95;-19845.81;5084442;28;20024;-74
2021/07/26 07:38:00;;;;;;;5.72;2.58;;;;;;;26.27;90.61;-19844.50;5085414;28;20061;-74
2021/07/26 07:40:26;;;;;;;4.63;2.40;;;;;;;27.06;89.43;-19864.50;5084584;28;20035;-74
2021/07/26 07:42:54;;;;;;;5.70;3.10;;;;;;;26.81;85.78;-19858.19;5085477;28;20535;-74
2021/07/26 07:45:20;;;;;;;5.35;3.08;;;;;;;26.95;81.97;-19861.53;5085575;28;20163;-75
2021/07/26 07:47:46;;;;;;;5.20;2.42;;;;;;;27.28;79.80;-19870.03;5096050;28;20031;-75
2021/07/26 07:50:14;;;;;;;5.28;2.60;;;;;;;28.10;76.15;-19890.59;5092287;28;20024;-75
2021/07/26 07:52:40;;;;;;;6.50;2.70;;;;;;;28.68;76.69;-19905.25;5098084;28;20030;-75
2021/07/26 07:55:07;;;;;;;5.13;2.38;;;;;;;28.76;75.55;-19907.31;5091660;28;20028;-74
2021/07/26 07:57:35;;;;;;;4.65;2.65;;;;;;;28.81;70.68;-19908.72;5091349;28;20106;-74
2021/07/26 08:00:03;;;;;;;6.68;2.67;;;;;;;28.94;68.56;-19911.81;5086553;28;20163;-74
2021/07/26 08:02:29;;;;;;;4.80;2.30;;;;;;;29.51;71.33;-19926.31;5088815;28;20415;-74
2021/07/26 08:04:54;;;;;;;7.53;2.75;;;;;;;29.68;65.65;-19930.69;5085743;28;20154;-75
2021/07/26 08:07:20;;;;;;;5.53;1.95;;;;;;;31.06;60.09;-19965.41;5087038;28;20251;-73
2021/07/26 08:09:45;;;;;;;6.60;2.30;;;;;;;30.62;63.45;-19954.25;5084372;28;20027;-72
2021/07/26 08:12:10;;;;;;;4.70;2.13;;;;;;;30.19;59.33;-19943.50;5085101;28;20471;-72
2021/07/26 08:14:36;;;;;;;4.20;2.28;;;;;;;29.51;63.13;-19926.19;5088363;28;20079;-72
2021/07/26 08:17:02;;;;;;;4.07;2.08;;;;;;;29.19;63.20;-19918.34;5082220;28;20488;-72
2021/07/26 08:19:34;;;;;;;5.95;2.13;;;;;;;30.57;62.45;-19953.09;5085684;28;20082;-73
2021/07/26 08:22:00;;;;;;;4.32;2.25;;;;;;;30.98;55.32;-19963.22;5081819;28;20117;-73
2021/07/26 08:24:25;;;;;;;4.00;1.92;;;;;;;28.10;63.20;-19890.59;5082760;28;20457;-73
2021/07/26 08:26:51;;;;;;;4.65;1.73;;;;;;;27.82;64.03;-19883.66;5080527;28;20276;-72
2021/07/26 08:29:16;;;;;;;4.90;1.55;;;;;;;27.35;66.35;-19871.81;5083066;28;20278;-72
2021/07/26 08:31:42;;;;;;;3.78;1.58;;;;;;;27.51;65.25;-19875.69;5080949;28;20027;-72
2021/07/26 08:34:08;;;;;;;3.65;1.70;;;;;;;28.03;63.85;-19889.06;5082103;28;20147;-72
2021/07/26 08:36:33;;;;;;;3.63;1.60;;;;;;;28.59;62.96;-19903.06;5081487;28;20447;-72
2021/07/26 08:38:59;;;;;;;5.80;1.83;;;;;;;28.92;58.66;-19911.44;5089948;28;20080;-72
2021/07/26 08:41:24;;;;;;;4.20;1.67;;;;;;;28.35;60.12;-19897.03;5088320;28;20190;-73
2021/07/26 08:43:50;;;;;;;3.45;1.60;;;;;;;28.50;61.03;-19900.91;5090333;28;20423;-73
2021/07/26 08:46:19;;;;;;;5.72;2.00;;;;;;;28.92;58.38;-19911.44;5086304;28;20050;-73
2021/07/26 08:48:48;;;;;;;4.28;1.80;;;;;;;28.39;58.80;-19898.06;5086520;28;20410;-72
2021/07/26 08:51:20;;;;;;;3.92;1.67;;;;;;;27.61;62.42;-19878.25;5084788;28;20500;-73
2021/07/26 08:53:50;;;;;;;5.43;2.10;;;;;;;28.75;60.88;-19907.19;5096976;28;20430;-72
2021/07/26 08:56:19;;;;;;;5.55;2.20;;;;;;;29.68;57.24;-19930.53;5087281;28;20023;-73
2021/07/26 08:58:46;;;;;;;6.00;1.70;;;;;;;29.78;56.32;-19933.13;5099581;28;20039;-73
2021/07/26 09:01:15;;;;;;;4.20;1.30;;;;;;;31.51;54.33;-19976.53;5087652;28;20380;-73
2021/07/26 09:03:41;;;;;;;4.28;1.50;;;;;;;29.41;54.55;-19923.75;5097098;28;20472;-73
2021/07/26 09:06:07;;;;;;;3.00;1.30;;;;;;;29.56;54.27;-19927.59;5082008;28;20027;-73
2021/07/26 09:08:38;;;;;;;3.58;1.70;;;;;;;29.79;56.14;-19933.38;5093993;28;20032;-73
2021/07/26 09:11:04;;;;;;;4.13;1.70;;;;;;;29.92;53.08;-19936.69;5086712;28;20024;-73
2021/07/26 09:13:39;;;;;;;4.80;1.63;;;;;;;29.15;53.74;-19917.34;5094958;28;20047;-73
2021/07/26 09:16:19;;;;;;;4.85;1.67;;;;;;;29.06;58.20;-19915.03;5084025;28;20114;-73
2021/07/26 09:18:46;;;;;;;3.38;1.50;;;;;;;29.49;57.96;-19925.81;5091303;28;20114;-73
2021/07/26 09:21:12;;;;;;;3.40;1.55;;;;;;;29.50;55.50;-19925.94;5086685;28;20399;-74
2021/07/26 09:24:04;;;;;;;2.58;1.10;;;;;;;29.45;54.27;-19924.91;5091439;28;20028;-75
2021/07/26 09:26:30;;;;;;;3.53;1.60;;;;;;;29.30;58.71;-19920.94;5083385;28;20115;-74
2021/07/26 09:28:55;;;;;;;4.63;1.55;;;;;;;28.67;57.43;-19905.13;5089810;28;20032;-73
2021/07/26 09:31:21;;;;;;;3.90;1.48;;;;;;;28.27;59.15;-19895.13;5083491;28;20499;-73
2021/07/26 09:33:46;;;;;;;3.13;1.42;;;;;;;28.21;63.46;-19893.56;5088483;28;20192;-73
2021/07/26 09:36:20;;;;;;;4.93;1.40;;;;;;;29.35;59.25;-19922.22;5083631;28;20020;-73
2021/07/26 09:39:04;;;;;;;2.88;0.98;;;;;;;29.13;57.26;-19916.69;5088108;28;20055;-73
2021/07/26 09:41:43;;;;;;;2.97;1.20;;;;;;;29.01;56.30;-19913.75;5083040;28;20027;-73
2021/07/26 09:44:09;;;;;;;3.47;1.50;;;;;;;28.31;58.99;-19896.00;5087452;28;20475;-73
2021/07/26 09:46:38;;;;;;;2.55;1.20;;;;;;;27.50;60.58;-19875.56;5083087;28;20472;-73
2021/07/26 09:49:14;;;;;;;6.32;1.40;;;;;;;27.40;61.30;-19873.13;5082612;28;20028;-73
2021/07/26 09:51:41;;;;;;;2.88;1.20;;;;;;;27.56;61.33;-19876.97;5083577;28;20377;-73
2021/07/26 09:54:07;;;;;;;3.42;1.30;;;;;;;27.72;61.74;-19881.22;5096036;28;20050;-73
2021/07/26 09:56:33;;;;;;;3.17;1.42;;;;;;;28.04;59.44;-19889.19;5082960;28;20038;-73
2021/07/26 09:59:00;;;;;;;2.92;1.30;;;;;;;28.37;57.00;-19897.56;5094976;28;20103;-73
2021/07/26 10:01:26;;;;;;;2.63;1.08;;;;;;;29.28;53.72;-19920.53;5082783;28;20035;-73
2021/07/26 10:03:52;;;;;;;4.10;1.65;;;;;;;30.56;55.74;-19952.84;5093546;28;20125;-74
2021/07/26 10:06:18;;;;;;;4.45;1.40;;;;;;;30.37;52.52;-19947.97;5082666;28;20469;-74
2021/07/26 10:08:45;;;;;;;3.10;1.20;;;;;;;29.02;55.01;-19914.00;5092469;28;20028;-73
2021/07/26 10:11:10;;;;;;;3.53;1.30;;;;;;;28.27;59.47;-19894.97;5082975;28;20046;-73
2021/07/26 10:13:42;;;;;;;3.15;1.30;;;;;;;27.79;60.74;-19882.75;5090857;28;20622;-73
2021/07/26 10:16:18;;;;;;;3.60;1.30;;;;;;;27.53;62.04;-19876.19;5082313;28;20212;-74
2021/07/26 10:18:48;;;;;;;4.22;1.40;;;;;;;27.12;65.98;-19865.91;5089869;28;20027;-73
2021/07/26 10:21:25;;;;;;;3.35;1.42;;;;;;;27.53;62.48;-19876.19;5082364;28;20056;-74
2021/07/26 10:23:57;;;;;;;5.07;1.30;;;;;;;28.17;60.41;-19892.41;5088938;28;20155;-73
2021/07/26 10:26:32;;;;;;;3.65;1.30;;;;;;;27.63;59.98;-19878.91;5082178;28;20024;-73
2021/07/26 10:28:58;;;;;;;6.20;1.40;;;;;;;29.85;53.59;-19934.78;5087803;28;20442;-74
2021/07/26 10:31:35;;;;;;;4.28;1.58;;;;;;;31.30;48.49;-19971.41;5082084;28;20038;-74
2021/07/26 10:34:15;;;;;;;2.05;1.00;;;;;;;30.82;49.81;-19959.38;5086671;28;20454;-74
2021/07/26 10:36:58;;;;;;;3.08;1.20;;;;;;;29.83;48.36;-19934.41;5082470;28;20139;-74
2021/07/26 10:39:27;;;;;;;2.72;1.17;;;;;;;29.36;52.69;-19922.47;5079833;28;20028;-74
2021/07/26 10:42:01;;;;;;;2.33;1.20;;;;;;;28.42;51.91;-19898.84;5081841;28;20277;-74
2021/07/26 10:44:47;;;;;;;2.53;1.15;;;;;;;28.08;55.17;-19890.09;5080811;28;20604;-74
2021/07/26 10:47:14;;;;;;;2.92;1.20;;;;;;;29.48;49.40;-19925.56;5081713;28;20032;-74
2021/07/26 10:50:10;;;;;;;2.60;1.17;;;;;;;31.17;47.53;-19968.22;5081733;28;20499;-74
2021/07/26 10:52:45;;;;;;;2.80;1.30;;;;;;;32.14;44.29;-19992.38;5068731;28;20572;-74
2021/07/26 10:55:10;;;;;;;4.60;1.33;;;;;;;30.27;49.13;-19945.53;5087537;28;20614;-74
2021/07/26 10:57:40;;;;;;;3.28;1.27;;;;;;;28.62;54.28;-19903.72;5087275;28;20081;-74
2021/07/26 11:00:18;;;;;;;3.33;1.25;;;;;;;29.39;52.85;-19923.22;5086780;28;20040;-74
2021/07/26 11:02:46;;;;;;;4.05;1.30;;;;;;;29.83;50.21;-19934.28;5081955;28;20059;-74
2021/07/26 11:05:47;;;;;;;3.30;1.40;;;;;;;30.26;49.30;-19945.28;5081078;28;20030;-74
2021/07/26 11:08:32;;;;;;;3.85;1.23;;;;;;;30.20;47.97;-19943.75;5007677;28;20033;-74
2021/07/26 11:10:58;;;;;;;2.65;1.48;;;;;;;28.66;52.25;-19904.75;4998187;28;20099;-74
2021/07/26 11:14:04;;;;;;;3.13;1.38;;;;;;;26.94;57.14;-19861.41;5007236;28;20116;-74
2021/07/26 11:17:07;;;;;;;2.60;1.20;;;;;;;28.16;54.31;-19892.16;4991373;28;20038;-74
2021/07/26 11:20:00;;;;;;;3.33;1.50;;;;;;;29.41;50.36;-19923.75;4945413;28;20097;-74
2021/07/26 11:22:58;;;;;;;3.33;1.30;;;;;;;29.97;49.69;-19937.84;4944128;28;20045;-74
2021/07/26 11:25:24;;;;;;;2.72;1.20;;;;;;;29.91;49.91;-19936.31;4929780;29;20113;-74